createdAt,value
2022-11-21T00:00:04.904Z,292.500000
2022-11-21T00:01:00.205Z,292.500000
2022-11-21T00:02:00.338Z,297.500000
2022-11-21T00:03:00.253Z,297.500000
2022-11-21T00:04:00.297Z,297.500000
2022-11-21T00:05:03.649Z,280.000000
2022-11-21T00:06:00.371Z,280.000000
2022-11-21T00:07:00.330Z,295.000000
2022-11-21T00:08:00.336Z,295.000000
2022-11-21T00:09:00.287Z,295.000000
2022-11-21T00:10:04.660Z,300.000000
2022-11-21T00:11:00.352Z,300.000000
2022-11-21T00:12:00.372Z,287.500000
2022-11-21T00:13:00.304Z,287.500000
2022-11-21T00:14:00.368Z,287.500000
2022-11-21T00:15:03.165Z,257.500000
2022-11-21T00:16:00.399Z,257.500000
2022-11-21T00:17:00.325Z,257.500000
2022-11-21T00:18:00.420Z,307.500000
2022-11-21T00:19:00.355Z,307.500000
2022-11-21T00:20:03.811Z,290.000000
2022-11-21T00:21:00.413Z,290.000000
2022-11-21T00:22:00.425Z,290.000000
2022-11-21T00:23:00.381Z,290.000000
2022-11-21T00:24:00.444Z,290.000000
2022-11-21T00:25:03.791Z,240.000000
2022-11-21T00:26:00.462Z,240.000000
2022-11-21T00:27:00.466Z,240.000000
2022-11-21T00:28:00.469Z,250.000000
2022-11-21T00:29:00.405Z,250.000000
2022-11-21T00:30:03.874Z,250.000000
2022-11-21T00:31:00.440Z,275.000000
2022-11-21T00:32:00.508Z,275.000000
2022-11-21T00:33:00.664Z,270.000000
2022-11-21T00:34:00.522Z,270.000000
2022-11-21T00:35:03.681Z,270.000000
2022-11-21T00:36:00.540Z,270.000000
2022-11-21T00:37:00.482Z,270.000000
2022-11-21T00:38:00.542Z,282.500000
2022-11-21T00:39:00.523Z,282.500000
2022-11-21T00:40:04.954Z,282.500000
2022-11-21T00:41:00.497Z,270.000000
2022-11-21T00:42:00.580Z,270.000000
2022-11-21T00:43:00.634Z,270.000000
2022-11-21T00:44:00.567Z,270.000000
2022-11-21T00:45:05.704Z,270.000000
2022-11-21T00:46:00.613Z,260.000000
2022-11-21T00:47:00.546Z,260.000000
2022-11-21T00:48:00.628Z,290.000000
2022-11-21T00:49:00.569Z,290.000000
2022-11-21T00:50:05.989Z,290.000000
2022-11-21T00:51:00.970Z,272.500000
2022-11-21T00:52:00.671Z,272.500000
2022-11-21T00:53:00.595Z,280.000000
2022-11-21T00:54:00.666Z,280.000000
2022-11-21T00:55:03.789Z,280.000000
2022-11-21T00:56:00.673Z,272.500000
2022-11-21T00:57:00.650Z,272.500000
2022-11-21T00:58:00.720Z,295.000000
2022-11-21T00:59:00.672Z,295.000000
2022-11-21T01:00:04.990Z,295.000000
2022-11-21T01:01:00.713Z,290.000000
2022-11-21T01:02:00.729Z,290.000000
2022-11-21T01:03:00.707Z,290.000000
2022-11-21T01:04:00.746Z,270.000000
2022-11-21T01:05:03.806Z,270.000000
2022-11-21T01:06:00.776Z,287.500000
2022-11-21T01:07:00.728Z,287.500000
2022-11-21T01:08:00.772Z,287.500000
2022-11-21T01:09:00.770Z,295.000000
2022-11-21T01:10:05.075Z,295.000000
2022-11-21T01:11:00.729Z,277.500000
2022-11-21T01:12:00.805Z,277.500000
2022-11-21T01:13:00.747Z,300.000000
2022-11-21T01:14:00.811Z,300.000000
2022-11-21T01:15:03.699Z,300.000000
2022-11-21T01:16:00.826Z,287.500000
2022-11-21T01:17:00.774Z,287.500000
2022-11-21T01:18:00.851Z,277.500000
2022-11-21T01:19:00.780Z,277.500000
2022-11-21T01:20:04.231Z,277.500000
2022-11-21T01:21:00.822Z,275.000000
2022-11-21T01:22:00.884Z,275.000000
2022-11-21T01:23:00.827Z,275.000000
2022-11-21T01:24:00.926Z,300.000000
2022-11-21T01:25:03.766Z,300.000000
2022-11-21T01:26:00.935Z,310.000000
2022-11-21T01:27:00.854Z,310.000000
2022-11-21T01:28:00.931Z,310.000000
2022-11-21T01:29:00.872Z,325.000000
2022-11-21T01:30:04.502Z,325.000000
2022-11-21T01:31:00.885Z,272.500000
2022-11-21T01:32:00.973Z,272.500000
2022-11-21T01:33:00.908Z,300.000000
2022-11-21T01:34:00.967Z,300.000000
2022-11-21T01:35:03.894Z,300.000000
2022-11-21T01:36:00.997Z,305.000000
2022-11-21T01:37:00.950Z,305.000000
2022-11-21T01:38:01.154Z,285.000000
2022-11-21T01:39:00.955Z,285.000000
2022-11-21T01:40:05.255Z,285.000000
2022-11-21T01:41:00.969Z,317.500000
2022-11-21T01:42:01.030Z,317.500000
2022-11-21T01:43:00.973Z,317.500000
2022-11-21T01:44:01.106Z,317.500000
2022-11-21T01:45:05.581Z,317.500000
2022-11-21T01:46:01.084Z,295.000000
2022-11-21T01:47:01.019Z,295.000000
2022-11-21T01:48:01.115Z,295.000000
2022-11-21T01:49:01.036Z,300.000000
2022-11-21T01:50:07.204Z,300.000000
2022-11-21T01:51:01.061Z,300.000000
2022-11-21T01:52:01.121Z,300.000000
2022-11-21T01:53:01.052Z,285.000000
2022-11-21T01:54:01.132Z,285.000000
2022-11-21T01:55:04.084Z,285.000000
2022-11-21T01:56:01.178Z,280.000000
2022-11-21T01:57:01.109Z,280.000000
2022-11-21T01:58:01.180Z,280.000000
2022-11-21T01:59:01.123Z,285.000000
2022-11-21T02:00:05.573Z,285.000000
2022-11-21T02:01:01.226Z,285.000000
2022-11-21T02:02:01.237Z,270.000000
2022-11-21T02:03:01.177Z,270.000000
2022-11-21T02:04:01.228Z,305.000000
2022-11-21T02:05:04.311Z,305.000000
2022-11-21T02:06:00.258Z,307.500000
2022-11-21T02:07:00.256Z,307.500000
2022-11-21T02:08:00.287Z,307.500000
2022-11-21T02:09:00.208Z,307.500000
2022-11-21T02:10:04.581Z,307.500000
2022-11-21T02:11:00.223Z,307.500000
2022-11-21T02:12:00.320Z,292.500000
2022-11-21T02:13:00.232Z,292.500000
2022-11-21T02:14:00.329Z,327.500000
2022-11-21T02:15:03.657Z,327.500000
2022-11-21T02:16:00.332Z,307.500000
2022-11-21T02:17:00.286Z,307.500000
2022-11-21T02:18:00.350Z,307.500000
2022-11-21T02:19:00.277Z,282.500000
2022-11-21T02:20:04.712Z,282.500000
2022-11-21T02:21:00.313Z,282.500000
2022-11-21T02:22:00.376Z,295.000000
2022-11-21T02:23:00.317Z,295.000000
2022-11-21T02:24:00.727Z,282.500000
2022-11-21T02:25:03.640Z,282.500000
2022-11-21T02:26:01.259Z,282.500000
2022-11-21T02:27:00.335Z,285.000000
2022-11-21T02:28:00.492Z,285.000000
2022-11-21T02:29:00.342Z,260.000000
2022-11-21T02:30:04.976Z,260.000000
2022-11-21T02:31:00.374Z,260.000000
2022-11-21T02:32:00.471Z,297.500000
2022-11-21T02:33:00.398Z,297.500000
2022-11-21T02:34:00.728Z,267.500000
2022-11-21T02:35:04.745Z,267.500000
2022-11-21T02:36:00.603Z,267.500000
2022-11-21T02:37:00.411Z,267.500000
2022-11-21T02:38:00.933Z,267.500000
2022-11-21T02:39:00.425Z,307.500000
2022-11-21T02:40:05.213Z,307.500000
2022-11-21T02:41:00.444Z,307.500000
2022-11-21T02:42:01.075Z,292.500000
2022-11-21T02:43:00.454Z,292.500000
2022-11-21T02:44:01.175Z,292.500000
2022-11-21T02:45:03.814Z,250.000000
2022-11-21T02:46:01.054Z,250.000000
2022-11-21T02:47:00.502Z,300.000000
2022-11-21T02:48:04.286Z,300.000000
2022-11-21T02:49:00.519Z,300.000000
2022-11-21T02:50:03.986Z,297.500000
2022-11-21T02:51:00.535Z,297.500000
2022-11-21T02:52:01.441Z,280.000000
2022-11-21T02:53:00.550Z,280.000000
2022-11-21T02:54:01.291Z,280.000000
2022-11-21T02:55:03.703Z,295.000000
2022-11-21T02:56:01.758Z,295.000000
2022-11-21T02:57:00.598Z,285.000000
2022-11-21T02:58:04.870Z,285.000000
2022-11-21T02:59:00.603Z,305.000000
2022-11-21T03:00:06.196Z,305.000000
2022-11-21T03:01:00.690Z,305.000000
2022-11-21T03:02:01.212Z,325.000000
2022-11-21T03:03:00.647Z,325.000000
2022-11-21T03:04:00.729Z,325.000000
2022-11-21T03:05:03.676Z,280.000000
2022-11-21T03:06:00.741Z,280.000000
2022-11-21T03:07:00.670Z,302.500000
2022-11-21T03:08:00.798Z,302.500000
2022-11-21T03:09:00.686Z,292.500000
2022-11-21T03:10:05.033Z,292.500000
2022-11-21T03:11:00.692Z,292.500000
2022-11-21T03:12:00.773Z,277.500000
2022-11-21T03:13:00.873Z,277.500000
2022-11-21T03:14:00.797Z,277.500000
2022-11-21T03:15:03.748Z,285.000000
2022-11-21T03:16:00.803Z,285.000000
2022-11-21T03:17:00.733Z,277.500000
2022-11-21T03:18:00.835Z,277.500000
2022-11-21T03:19:00.759Z,277.500000
2022-11-21T03:20:05.163Z,287.500000
2022-11-21T03:21:00.792Z,287.500000
2022-11-21T03:22:00.858Z,285.000000
2022-11-21T03:23:00.792Z,285.000000
2022-11-21T03:24:00.873Z,285.000000
2022-11-21T03:25:03.672Z,270.000000
2022-11-21T03:26:00.907Z,270.000000
2022-11-21T03:27:00.828Z,280.000000
2022-11-21T03:28:00.900Z,280.000000
2022-11-21T03:29:00.826Z,280.000000
2022-11-21T03:30:05.761Z,295.000000
2022-11-21T03:31:00.850Z,295.000000
2022-11-21T03:32:00.936Z,275.000000
2022-11-21T03:33:00.876Z,275.000000
2022-11-21T03:34:00.931Z,275.000000
2022-11-21T03:35:07.435Z,285.000000
2022-11-21T03:36:00.963Z,285.000000
2022-11-21T03:37:00.892Z,317.500000
2022-11-21T03:38:00.983Z,317.500000
2022-11-21T03:39:00.922Z,317.500000
2022-11-21T03:40:06.494Z,285.000000
2022-11-21T03:41:00.925Z,285.000000
2022-11-21T03:42:00.989Z,272.500000
2022-11-21T03:43:00.939Z,272.500000
2022-11-21T03:44:01.045Z,272.500000
2022-11-21T03:45:03.792Z,265.000000
2022-11-21T03:46:01.025Z,265.000000
2022-11-21T03:47:00.955Z,265.000000
2022-11-21T03:48:01.038Z,267.500000
2022-11-21T03:49:00.975Z,267.500000
2022-11-21T03:50:06.268Z,280.000000
2022-11-21T03:51:01.023Z,280.000000
2022-11-21T03:52:01.064Z,280.000000
2022-11-21T03:53:00.992Z,275.000000
2022-11-21T03:54:01.066Z,275.000000
2022-11-21T03:55:04.704Z,272.500000
2022-11-21T03:56:01.109Z,272.500000
2022-11-21T03:57:01.036Z,272.500000
2022-11-21T03:58:01.100Z,267.500000
2022-11-21T03:59:01.042Z,267.500000
2022-11-21T04:00:05.470Z,270.000000
2022-11-21T04:01:01.123Z,270.000000
2022-11-21T04:02:01.250Z,270.000000
2022-11-21T04:03:01.089Z,280.000000
2022-11-21T04:04:01.173Z,280.000000
2022-11-21T04:05:04.034Z,280.000000
2022-11-21T04:06:01.210Z,280.000000
2022-11-21T04:07:01.154Z,280.000000
2022-11-21T04:08:01.211Z,282.500000
2022-11-21T04:09:01.135Z,282.500000
2022-11-21T04:10:04.507Z,282.500000
2022-11-21T04:11:01.147Z,280.000000
2022-11-21T04:12:06.420Z,280.000000
2022-11-21T04:13:01.157Z,272.500000
2022-11-21T04:14:01.277Z,272.500000
2022-11-21T04:15:07.011Z,265.000000
2022-11-21T04:16:00.254Z,265.000000
2022-11-21T04:17:00.177Z,265.000000
2022-11-21T04:18:00.280Z,305.000000
2022-11-21T04:19:00.197Z,305.000000
2022-11-21T04:20:04.863Z,317.500000
2022-11-21T04:21:00.233Z,317.500000
2022-11-21T04:22:00.309Z,317.500000
2022-11-21T04:23:00.224Z,325.000000
2022-11-21T04:24:00.330Z,325.000000
2022-11-21T04:25:03.123Z,262.500000
2022-11-21T04:26:00.345Z,262.500000
2022-11-21T04:27:00.270Z,262.500000
2022-11-21T04:28:00.324Z,235.000000
2022-11-21T04:29:00.259Z,235.000000
2022-11-21T04:30:05.198Z,235.000000
2022-11-21T04:31:00.785Z,285.000000
2022-11-21T04:32:00.416Z,285.000000
2022-11-21T04:33:00.315Z,292.500000
2022-11-21T04:34:00.383Z,292.500000
2022-11-21T04:35:03.654Z,292.500000
2022-11-21T04:36:00.432Z,277.500000
2022-11-21T04:37:00.428Z,277.500000
2022-11-21T04:38:00.452Z,252.500000
2022-11-21T04:39:00.367Z,252.500000
2022-11-21T04:40:05.401Z,255.000000
2022-11-21T04:41:00.365Z,255.000000
2022-11-21T04:42:07.722Z,255.000000
2022-11-21T04:43:00.552Z,252.500000
2022-11-21T04:44:00.510Z,252.500000
2022-11-21T04:45:03.636Z,252.500000
2022-11-21T04:46:00.503Z,272.500000
2022-11-21T04:47:05.086Z,272.500000
2022-11-21T04:48:00.829Z,295.000000
2022-11-21T04:49:00.424Z,295.000000
2022-11-21T04:50:03.984Z,297.500000
2022-11-21T04:51:00.464Z,297.500000
2022-11-21T04:52:00.839Z,297.500000
2022-11-21T04:53:00.448Z,282.500000
2022-11-21T04:54:00.598Z,282.500000
2022-11-21T04:55:03.675Z,282.500000
2022-11-21T04:56:00.840Z,317.500000
2022-11-21T04:57:00.516Z,317.500000
2022-11-21T04:58:00.578Z,330.000000
2022-11-21T04:59:00.505Z,330.000000
2022-11-21T05:00:04.991Z,277.500000
2022-11-21T05:01:00.638Z,277.500000
2022-11-21T05:02:00.672Z,295.000000
2022-11-21T05:03:00.579Z,295.000000
2022-11-21T05:04:00.829Z,295.000000
2022-11-21T05:05:03.803Z,295.000000
2022-11-21T05:06:00.664Z,270.000000
2022-11-21T05:07:00.607Z,270.000000
2022-11-21T05:08:00.687Z,270.000000
2022-11-21T05:09:00.607Z,270.000000
2022-11-21T05:10:05.064Z,270.000000
2022-11-21T05:11:00.623Z,262.500000
2022-11-21T05:12:00.686Z,262.500000
2022-11-21T05:13:00.617Z,265.000000
2022-11-21T05:14:00.726Z,265.000000
2022-11-21T05:15:04.852Z,265.000000
2022-11-21T05:16:00.703Z,250.000000
2022-11-21T05:17:00.673Z,250.000000
2022-11-21T05:18:00.832Z,250.000000
2022-11-21T05:19:00.668Z,267.500000
2022-11-21T05:20:07.159Z,267.500000
2022-11-21T05:21:00.677Z,272.500000
2022-11-21T05:22:00.818Z,272.500000
2022-11-21T05:23:00.699Z,272.500000
2022-11-21T05:24:00.785Z,270.000000
2022-11-21T05:25:05.577Z,270.000000
2022-11-21T05:26:00.871Z,270.000000
2022-11-21T05:27:00.747Z,235.000000
2022-11-21T05:28:00.795Z,235.000000
2022-11-21T05:29:00.744Z,260.000000
2022-11-21T05:30:05.137Z,260.000000
2022-11-21T05:31:00.763Z,260.000000
2022-11-21T05:32:00.864Z,262.500000
2022-11-21T05:33:00.792Z,262.500000
2022-11-21T05:34:00.867Z,262.500000
2022-11-21T05:35:03.901Z,262.500000
2022-11-21T05:36:00.894Z,285.000000
2022-11-21T05:37:00.815Z,285.000000
2022-11-21T05:38:00.911Z,285.000000
2022-11-21T05:39:00.826Z,272.500000
2022-11-21T05:40:04.119Z,272.500000
2022-11-21T05:41:00.866Z,272.500000
2022-11-21T05:42:03.120Z,282.500000
2022-11-21T05:43:00.853Z,282.500000
2022-11-21T05:44:00.970Z,300.000000
2022-11-21T05:45:03.817Z,300.000000
2022-11-21T05:46:00.945Z,310.000000
2022-11-21T05:47:00.896Z,310.000000
2022-11-21T05:48:00.984Z,310.000000
2022-11-21T05:49:00.895Z,270.000000
2022-11-21T05:50:05.519Z,270.000000
2022-11-21T05:51:00.934Z,270.000000
2022-11-21T05:52:00.990Z,250.000000
2022-11-21T05:53:00.928Z,250.000000
2022-11-21T05:54:01.018Z,250.000000
2022-11-21T05:55:03.816Z,247.500000
2022-11-21T05:56:01.161Z,247.500000
2022-11-21T05:57:01.014Z,235.000000
2022-11-21T05:58:01.079Z,235.000000
2022-11-21T05:59:00.977Z,285.000000
2022-11-21T06:00:04.569Z,285.000000
2022-11-21T06:01:01.033Z,285.000000
2022-11-21T06:02:01.161Z,250.000000
2022-11-21T06:03:01.093Z,250.000000
2022-11-21T06:04:01.130Z,250.000000
2022-11-21T06:05:03.920Z,282.500000
2022-11-21T06:06:01.158Z,282.500000
2022-11-21T06:07:01.165Z,287.500000
2022-11-21T06:08:01.178Z,287.500000
2022-11-21T06:09:01.088Z,315.000000
2022-11-21T06:10:04.370Z,315.000000
2022-11-21T06:11:01.106Z,315.000000
2022-11-21T06:12:01.206Z,290.000000
2022-11-21T06:13:01.124Z,290.000000
2022-11-21T06:14:01.223Z,290.000000
2022-11-21T06:15:05.247Z,245.000000
2022-11-21T06:16:01.221Z,245.000000
2022-11-21T06:17:01.148Z,267.500000
2022-11-21T06:18:01.238Z,267.500000
2022-11-21T06:19:01.163Z,265.000000
2022-11-21T06:20:06.502Z,265.000000
2022-11-21T06:21:01.202Z,240.000000
2022-11-21T06:22:00.852Z,240.000000
2022-11-21T06:23:00.206Z,240.000000
2022-11-21T06:24:00.311Z,210.000000
2022-11-21T06:25:03.089Z,210.000000
2022-11-21T06:26:00.858Z,210.000000
2022-11-21T06:27:00.239Z,225.000000
2022-11-21T06:28:00.348Z,225.000000
2022-11-21T06:29:00.250Z,265.000000
2022-11-21T06:30:03.783Z,265.000000
2022-11-21T06:31:00.262Z,280.000000
2022-11-21T06:32:00.383Z,280.000000
2022-11-21T06:33:00.301Z,280.000000
2022-11-21T06:34:00.837Z,250.000000
2022-11-21T06:35:03.112Z,250.000000
2022-11-21T06:36:00.388Z,250.000000
2022-11-21T06:37:00.319Z,250.000000
2022-11-21T06:38:00.425Z,250.000000
2022-11-21T06:39:00.334Z,260.000000
2022-11-21T06:40:04.691Z,260.000000
2022-11-21T06:41:00.340Z,260.000000
2022-11-21T06:42:00.439Z,245.000000
2022-11-21T06:43:00.363Z,245.000000
2022-11-21T06:44:00.624Z,245.000000
2022-11-21T06:45:03.749Z,267.500000
2022-11-21T06:46:00.440Z,267.500000
2022-11-21T06:47:00.395Z,250.000000
2022-11-21T06:48:00.880Z,250.000000
2022-11-21T06:49:00.394Z,250.000000
2022-11-21T06:50:03.915Z,200.000000
2022-11-21T06:51:00.420Z,200.000000
2022-11-21T06:52:00.839Z,195.000000
2022-11-21T06:53:00.416Z,195.000000
2022-11-21T06:54:00.523Z,275.000000
2022-11-21T06:55:03.751Z,275.000000
2022-11-21T06:56:00.861Z,275.000000
2022-11-21T06:57:00.467Z,275.000000
2022-11-21T06:58:00.521Z,275.000000
2022-11-21T06:59:00.513Z,275.000000
2022-11-21T07:00:04.969Z,260.000000
2022-11-21T07:01:00.517Z,260.000000
2022-11-21T07:02:00.582Z,265.000000
2022-11-21T07:03:03.270Z,265.000000
2022-11-21T07:04:00.826Z,265.000000
2022-11-21T07:05:03.675Z,262.500000
2022-11-21T07:06:00.673Z,262.500000
2022-11-21T07:07:00.621Z,262.500000
2022-11-21T07:08:00.915Z,262.500000
2022-11-21T07:09:30.899Z,262.500000
2022-11-21T07:10:05.004Z,225.000000
2022-11-21T07:11:23.101Z,225.000000
2022-11-21T07:12:00.663Z,225.000000
2022-11-21T07:13:00.595Z,245.000000
2022-11-21T07:14:03.828Z,245.000000
2022-11-21T07:15:05.160Z,265.000000
2022-11-21T07:16:00.691Z,265.000000
2022-11-21T07:17:00.636Z,255.000000
2022-11-21T07:18:00.953Z,255.000000
2022-11-21T07:19:00.649Z,255.000000
2022-11-21T07:20:04.414Z,250.000000
2022-11-21T07:21:00.675Z,250.000000
2022-11-21T07:22:00.885Z,250.000000
2022-11-21T07:23:00.678Z,290.000000
2022-11-21T07:24:00.771Z,290.000000
2022-11-21T07:25:03.832Z,270.000000
2022-11-21T07:26:00.879Z,270.000000
2022-11-21T07:27:00.696Z,245.000000
2022-11-21T07:28:00.811Z,245.000000
2022-11-21T07:29:00.719Z,245.000000
2022-11-21T07:30:05.400Z,255.000000
2022-11-21T07:31:01.060Z,255.000000
2022-11-21T07:32:00.832Z,255.000000
2022-11-21T07:33:00.899Z,260.000000
2022-11-21T07:34:01.023Z,260.000000
2022-11-21T07:35:04.119Z,260.000000
2022-11-21T07:36:00.894Z,230.000000
2022-11-21T07:37:00.762Z,230.000000
2022-11-21T07:38:00.887Z,250.000000
2022-11-21T07:39:00.797Z,250.000000
2022-11-21T07:40:05.269Z,260.000000
2022-11-21T07:41:00.765Z,260.000000
2022-11-21T07:42:00.870Z,260.000000
2022-11-21T07:43:00.797Z,270.000000
2022-11-21T07:44:00.964Z,270.000000
2022-11-21T07:45:03.692Z,307.500000
2022-11-21T07:46:00.910Z,307.500000
2022-11-21T07:47:00.876Z,307.500000
2022-11-21T07:48:01.172Z,297.500000
2022-11-21T07:49:03.520Z,297.500000
2022-11-21T07:50:04.840Z,132.500000
2022-11-21T07:51:00.884Z,132.500000
2022-11-21T07:52:00.951Z,132.500000
2022-11-21T07:53:00.912Z,32.500000
2022-11-21T07:54:00.951Z,32.500000
2022-11-21T07:55:03.874Z,30.000000
2022-11-21T07:56:00.989Z,30.000000
2022-11-21T07:57:00.906Z,30.000000
2022-11-21T07:58:00.982Z,32.500000
2022-11-21T07:59:00.923Z,32.500000
2022-11-21T08:00:05.298Z,345.000000
2022-11-21T08:01:00.951Z,345.000000
2022-11-21T08:02:01.260Z,345.000000
2022-11-21T08:03:01.044Z,202.500000
2022-11-21T08:04:01.046Z,202.500000
2022-11-21T08:05:04.036Z,202.500000
2022-11-21T08:06:01.066Z,227.500000
2022-11-21T08:07:01.059Z,227.500000
2022-11-21T08:08:01.092Z,227.500000
2022-11-21T08:09:01.029Z,232.500000
2022-11-21T08:10:32.191Z,247.500000
2022-11-21T08:11:01.020Z,247.500000
2022-11-21T08:12:01.121Z,247.500000
2022-11-21T08:13:01.042Z,265.000000
2022-11-21T08:14:01.145Z,265.000000
2022-11-21T08:15:05.447Z,265.000000
2022-11-21T08:16:01.163Z,255.000000
2022-11-21T08:17:01.072Z,255.000000
2022-11-21T08:18:01.517Z,255.000000
2022-11-21T08:19:01.086Z,175.000000
2022-11-21T08:20:06.198Z,175.000000
2022-11-21T08:21:01.103Z,147.500000
2022-11-21T08:22:01.241Z,147.500000
2022-11-21T08:23:01.106Z,160.000000
2022-11-21T08:24:01.199Z,160.000000
2022-11-21T08:25:05.329Z,160.000000
2022-11-21T08:26:01.238Z,152.500000
2022-11-21T08:27:01.169Z,152.500000
2022-11-21T08:28:01.229Z,152.500000
2022-11-21T08:29:01.154Z,152.500000
2022-11-21T08:30:05.557Z,152.500000
2022-11-21T08:31:01.180Z,152.500000
2022-11-21T08:32:01.268Z,152.500000
2022-11-21T08:33:01.211Z,152.500000
2022-11-21T08:34:00.872Z,195.000000
2022-11-21T08:35:03.120Z,195.000000
2022-11-21T08:36:00.293Z,262.500000
2022-11-21T08:37:00.229Z,262.500000
2022-11-21T08:38:00.339Z,262.500000
2022-11-21T08:39:00.253Z,265.000000
2022-11-21T08:40:03.709Z,265.000000
2022-11-21T08:41:00.258Z,265.000000
2022-11-21T08:42:00.341Z,155.000000
2022-11-21T08:43:00.280Z,155.000000
2022-11-21T08:44:00.376Z,150.000000
2022-11-21T08:45:03.101Z,150.000000
2022-11-21T08:46:00.410Z,180.000000
2022-11-21T08:47:00.389Z,180.000000
2022-11-21T08:48:00.858Z,180.000000
2022-11-21T08:49:00.322Z,205.000000
2022-11-21T08:50:08.843Z,205.000000
2022-11-21T08:51:00.339Z,205.000000
2022-11-21T08:52:00.862Z,237.500000
2022-11-21T08:53:00.332Z,237.500000
2022-11-21T08:54:00.430Z,110.000000
2022-11-21T08:55:08.041Z,110.000000
2022-11-21T08:56:04.223Z,110.000000
2022-11-21T08:57:00.380Z,107.500000
2022-11-21T08:58:00.638Z,107.500000
2022-11-21T08:59:00.526Z,107.500000
2022-11-21T09:00:05.088Z,107.500000
2022-11-21T09:01:00.466Z,107.500000
2022-11-21T09:02:00.562Z,107.500000
2022-11-21T09:03:00.432Z,107.500000
2022-11-21T09:04:01.024Z,107.500000
2022-11-21T09:05:06.450Z,107.500000
2022-11-21T09:06:00.724Z,107.500000
2022-11-21T09:07:00.707Z,110.000000
2022-11-21T09:08:00.829Z,110.000000
2022-11-21T09:09:00.469Z,30.000000
2022-11-21T09:10:03.877Z,30.000000
2022-11-21T09:11:00.625Z,30.000000
2022-11-21T09:12:00.620Z,140.000000
2022-11-21T09:13:00.527Z,140.000000
2022-11-21T09:14:00.643Z,255.000000
2022-11-21T09:15:03.800Z,255.000000
2022-11-21T09:16:00.709Z,255.000000
2022-11-21T09:17:02.305Z,245.000000
2022-11-21T09:18:00.863Z,245.000000
2022-11-21T09:19:00.725Z,175.000000
2022-11-21T09:20:04.965Z,175.000000
2022-11-21T09:21:00.658Z,245.000000
2022-11-21T09:22:00.625Z,245.000000
2022-11-21T09:23:00.752Z,245.000000
2022-11-21T09:24:00.664Z,305.000000
2022-11-21T09:25:04.783Z,305.000000
2022-11-21T09:26:00.650Z,305.000000
2022-11-21T09:27:00.703Z,245.000000
2022-11-21T09:28:00.651Z,245.000000
2022-11-21T09:29:00.604Z,257.500000
2022-11-21T09:30:05.459Z,257.500000
2022-11-21T09:31:00.628Z,307.500000
2022-11-21T09:32:00.857Z,307.500000
2022-11-21T09:33:00.649Z,307.500000
2022-11-21T09:34:00.726Z,285.000000
2022-11-21T09:35:03.735Z,285.000000
2022-11-21T09:36:00.777Z,285.000000
2022-11-21T09:37:00.697Z,255.000000
2022-11-21T09:38:00.733Z,255.000000
2022-11-21T09:39:00.692Z,255.000000
2022-11-21T09:40:05.012Z,255.000000
2022-11-21T09:41:00.692Z,255.000000
2022-11-21T09:42:00.840Z,255.000000
2022-11-21T09:43:00.816Z,255.000000
2022-11-21T09:44:00.789Z,225.000000
2022-11-21T09:45:03.913Z,225.000000
2022-11-21T09:46:00.822Z,225.000000
2022-11-21T09:47:00.789Z,225.000000
2022-11-21T09:48:00.979Z,225.000000
2022-11-21T09:49:00.754Z,225.000000
2022-11-21T09:50:04.226Z,237.500000
2022-11-21T09:51:00.794Z,237.500000
2022-11-21T09:52:00.818Z,210.000000
2022-11-21T09:53:01.165Z,210.000000
2022-11-21T09:54:00.897Z,202.500000
2022-11-21T09:55:03.827Z,202.500000
2022-11-21T09:56:00.848Z,202.500000
2022-11-21T09:57:00.834Z,210.000000
2022-11-21T09:58:00.884Z,210.000000
2022-11-21T09:59:00.834Z,210.000000
2022-11-21T10:00:05.834Z,150.000000
2022-11-21T10:01:00.965Z,150.000000
2022-11-21T10:02:00.949Z,167.500000
2022-11-21T10:03:00.888Z,167.500000
2022-11-21T10:04:00.953Z,202.500000
2022-11-21T10:05:04.137Z,202.500000
2022-11-21T10:06:00.983Z,202.500000
2022-11-21T10:07:01.023Z,185.000000
2022-11-21T10:08:00.993Z,185.000000
2022-11-21T10:09:01.123Z,185.000000
2022-11-21T10:10:05.466Z,160.000000
2022-11-21T10:11:07.420Z,160.000000
2022-11-21T10:12:01.027Z,160.000000
2022-11-21T10:13:00.968Z,165.000000
2022-11-21T10:14:01.975Z,165.000000
2022-11-21T10:15:03.779Z,150.000000
2022-11-21T10:16:01.075Z,150.000000
2022-11-21T10:17:00.974Z,135.000000
2022-11-21T10:18:01.056Z,135.000000
2022-11-21T10:19:00.983Z,135.000000
2022-11-21T10:20:05.916Z,262.500000
2022-11-21T10:21:01.015Z,262.500000
2022-11-21T10:22:01.121Z,162.500000
2022-11-21T10:23:01.007Z,162.500000
2022-11-21T10:24:01.100Z,162.500000
2022-11-21T10:25:05.193Z,115.000000
2022-11-21T10:26:01.094Z,115.000000
2022-11-21T10:27:01.041Z,132.500000
2022-11-21T10:28:01.160Z,132.500000
2022-11-21T10:29:01.080Z,132.500000
2022-11-21T10:30:07.796Z,180.000000
2022-11-21T10:31:01.111Z,180.000000
2022-11-21T10:32:01.149Z,180.000000
2022-11-21T10:33:01.102Z,205.000000
2022-11-21T10:34:01.321Z,205.000000
2022-11-21T10:35:03.985Z,187.500000
2022-11-21T10:36:01.191Z,187.500000
2022-11-21T10:37:01.133Z,10.000000
2022-11-21T10:38:01.228Z,10.000000
2022-11-21T10:39:01.267Z,310.000000
2022-11-21T10:40:05.600Z,310.000000
2022-11-21T10:41:01.184Z,310.000000
2022-11-21T10:42:33.775Z,320.000000
2022-11-21T10:43:01.194Z,320.000000
2022-11-21T10:44:01.240Z,320.000000
2022-11-21T10:45:04.275Z,310.000000
2022-11-21T10:46:00.280Z,310.000000
2022-11-21T10:47:00.198Z,307.500000
2022-11-21T10:48:03.872Z,307.500000
2022-11-21T10:49:00.292Z,282.500000
2022-11-21T10:50:03.860Z,282.500000
2022-11-21T10:51:00.219Z,282.500000
2022-11-21T10:52:00.315Z,240.000000
2022-11-21T10:53:00.225Z,240.000000
2022-11-21T10:54:06.194Z,240.000000
2022-11-21T10:55:04.933Z,210.000000
2022-11-21T10:56:00.334Z,210.000000
2022-11-21T10:57:00.296Z,210.000000
2022-11-21T10:58:00.409Z,222.500000
2022-11-21T10:59:00.430Z,222.500000
2022-11-21T11:00:03.877Z,235.000000
2022-11-21T11:01:00.377Z,235.000000
2022-11-21T11:02:00.407Z,235.000000
2022-11-21T11:03:00.356Z,215.000000
2022-11-21T11:04:26.053Z,215.000000
2022-11-21T11:05:04.646Z,215.000000